createdAt,value
2022-09-20T00:02:44.437Z,0.9
2022-09-20T00:05:44.472Z,1.5
2022-09-20T00:08:44.498Z,1.1
2022-09-20T00:11:44.572Z,1.05
2022-09-20T00:14:44.503Z,1.2
2022-09-20T00:17:44.484Z,1.95
2022-09-20T00:20:44.506Z,1.85
2022-09-20T00:23:44.501Z,1
2022-09-20T00:26:44.460Z,0.85
2022-09-20T00:29:44.564Z,1.5
2022-09-20T00:32:44.502Z,0.9
2022-09-20T00:35:44.524Z,1.15
2022-09-20T00:38:44.481Z,1.45
2022-09-20T00:41:44.528Z,1.05
2022-09-20T00:44:44.516Z,0.9
2022-09-20T00:47:45.248Z,0.95
2022-09-20T00:50:44.527Z,1.5
2022-09-20T00:53:44.550Z,1.7
2022-09-20T00:56:44.511Z,1.45
2022-09-20T00:59:44.521Z,0.75
2022-09-20T01:02:44.624Z,1.3
2022-09-20T01:05:44.512Z,0.85
2022-09-20T01:08:44.543Z,1.1
2022-09-20T01:11:44.513Z,0.9
2022-09-20T01:14:44.536Z,0.95
2022-09-20T01:17:44.511Z,0.95
2022-09-20T01:20:44.536Z,1.45
2022-09-20T01:23:44.605Z,1.75
2022-09-20T01:26:44.487Z,0.9
2022-09-20T01:29:44.559Z,1.25
2022-09-20T01:32:44.561Z,1.05
2022-09-20T01:35:44.586Z,1.05
2022-09-20T01:38:44.572Z,1.15
2022-09-20T01:41:44.531Z,1.25
2022-09-20T01:44:44.522Z,1.55
2022-09-20T01:47:44.544Z,1.05
2022-09-20T01:50:44.566Z,1.55
2022-09-20T01:53:44.541Z,1.35
2022-09-20T01:56:44.616Z,2.05
2022-09-20T01:59:44.526Z,1.25
2022-09-20T02:02:44.649Z,1.65
2022-09-20T02:05:44.518Z,1.95
2022-09-20T02:08:44.554Z,0.95
2022-09-20T02:11:44.546Z,1.75
2022-09-20T02:14:44.536Z,1.65
2022-09-20T02:17:44.527Z,1.45
2022-09-20T02:20:44.518Z,1.45
2022-09-20T02:23:44.568Z,1.55
2022-09-20T02:26:44.551Z,1.75
2022-09-20T02:29:44.542Z,1.5
2022-09-20T02:32:44.582Z,1.15
2022-09-20T02:35:44.557Z,1.65
2022-09-20T02:38:44.572Z,1.35
2022-09-20T02:41:44.583Z,1.7
2022-09-20T02:44:44.599Z,1.45
2022-09-20T02:47:44.597Z,0.85
2022-09-20T02:50:44.641Z,1.9
2022-09-20T02:53:44.543Z,1
2022-09-20T02:56:44.592Z,0.7
2022-09-20T02:59:44.599Z,1.9
2022-09-20T03:02:44.949Z,0.95
2022-09-20T03:05:44.576Z,0.85
2022-09-20T03:08:44.576Z,0.75
2022-09-20T03:11:44.607Z,1.15
2022-09-20T03:14:44.564Z,1.35
2022-09-20T03:17:44.643Z,1.1
2022-09-20T03:20:44.609Z,1.2
2022-09-20T03:23:44.611Z,1.35
2022-09-20T03:26:44.636Z,1.2
2022-09-20T03:29:44.592Z,1.2
2022-09-20T03:32:44.612Z,1.05
2022-09-20T03:35:44.624Z,1.9
2022-09-20T03:38:44.614Z,1.25
2022-09-20T03:41:44.651Z,1.3
2022-09-20T03:44:44.627Z,2
2022-09-20T03:47:44.616Z,1.25
2022-09-20T03:50:44.620Z,0.9
2022-09-20T03:53:44.618Z,1.55
2022-09-20T03:56:44.679Z,1.2
2022-09-20T03:59:44.747Z,0.95
2022-09-20T04:02:44.691Z,0.95
2022-09-20T04:05:44.682Z,1.8
2022-09-20T04:08:44.665Z,1.1
2022-09-20T04:11:44.645Z,1.15
2022-09-20T04:14:44.718Z,1.25
2022-09-20T04:17:44.675Z,0.8
2022-09-20T04:20:44.718Z,1
2022-09-20T04:23:44.627Z,1.5
2022-09-20T04:26:44.669Z,1.3
2022-09-20T04:29:44.678Z,0.8
2022-09-20T04:32:44.654Z,1.3
2022-09-20T04:35:44.706Z,1.35
2022-09-20T04:38:44.666Z,1.6
2022-09-20T04:41:44.632Z,1.45
2022-09-20T04:44:44.642Z,1.45
2022-09-20T04:47:44.743Z,0.75
2022-09-20T04:50:44.649Z,1.4
2022-09-20T04:53:44.686Z,1.1
2022-09-20T04:56:44.678Z,1.7
2022-09-20T04:59:44.702Z,1.35
2022-09-20T05:02:44.854Z,1.1
2022-09-20T05:05:44.698Z,1.15
2022-09-20T05:08:44.700Z,1.65
2022-09-20T05:11:44.731Z,0.95
2022-09-20T05:14:44.703Z,1.5
2022-09-20T05:17:44.709Z,0.95
2022-09-20T05:20:44.689Z,1.25
2022-09-20T05:23:44.668Z,1.4
2022-09-20T05:26:44.744Z,1.4
2022-09-20T05:29:44.702Z,1.2
2022-09-20T05:32:44.986Z,1.1
2022-09-20T05:35:44.761Z,1.5
2022-09-20T05:38:44.712Z,1.05
2022-09-20T05:41:44.743Z,1.05
2022-09-20T05:44:44.735Z,1.45
2022-09-20T05:47:44.796Z,1.25
2022-09-20T05:50:44.716Z,1.25
2022-09-20T05:53:44.751Z,1.5
2022-09-20T05:56:44.712Z,1.05
2022-09-20T05:59:44.733Z,1.1
2022-09-20T06:02:45.059Z,1.3
2022-09-20T06:05:44.699Z,1.2
2022-09-20T06:08:44.787Z,1.4
2022-09-20T06:11:47.538Z,1.2
2022-09-20T06:14:44.730Z,1.25
2022-09-20T06:17:44.733Z,1.3
2022-09-20T06:20:44.870Z,1
2022-09-20T06:23:44.722Z,1
2022-09-20T06:26:44.735Z,1.3
2022-09-20T06:29:44.827Z,1.3
2022-09-20T06:32:44.747Z,1.55
2022-09-20T06:35:44.802Z,1.2
2022-09-20T06:38:44.784Z,1.5
2022-09-20T06:41:44.904Z,1.45
2022-09-20T06:44:44.722Z,0.9
2022-09-20T06:47:44.827Z,0.95
2022-09-20T06:50:44.777Z,0.8
2022-09-20T06:53:44.817Z,1.15
2022-09-20T06:56:44.779Z,1.35
2022-09-20T06:59:44.760Z,1.05
2022-09-20T07:02:44.819Z,1.6
2022-09-20T07:05:44.817Z,1.65
2022-09-20T07:08:44.888Z,1.55
2022-09-20T07:11:44.810Z,1
2022-09-20T07:14:44.752Z,0.95
2022-09-20T07:17:44.813Z,1.2
2022-09-20T07:20:44.777Z,1.25
2022-09-20T07:23:44.832Z,1.35
2022-09-20T07:26:44.825Z,1.5
2022-09-20T07:29:44.818Z,1.15
2022-09-20T07:32:44.814Z,1.25
2022-09-20T07:35:44.832Z,1.55
2022-09-20T07:38:44.857Z,1.55
2022-09-20T07:41:44.862Z,1.15
2022-09-20T07:44:44.757Z,1
2022-09-20T07:47:44.877Z,1.65
2022-09-20T07:50:44.813Z,0.95
2022-09-20T07:53:44.831Z,1.15
2022-09-20T07:56:44.844Z,1.2
2022-09-20T07:59:44.872Z,1.05
2022-09-20T08:02:44.919Z,1.3
2022-09-20T08:05:44.826Z,1.2
2022-09-20T08:08:44.904Z,1.45
2022-09-20T08:11:44.860Z,1.3
2022-09-20T08:14:44.932Z,1
2022-09-20T08:17:44.962Z,1.5
2022-09-20T08:20:44.842Z,1.3
2022-09-20T08:23:44.904Z,1.35
2022-09-20T08:26:44.859Z,1.4
2022-09-20T08:29:44.879Z,1.7
2022-09-20T08:32:44.912Z,1.4
2022-09-20T08:35:44.907Z,0.85
2022-09-20T08:41:45.017Z,2.35
2022-09-20T08:44:47.152Z,1.7
2022-09-20T08:47:44.904Z,1.85
2022-09-20T08:50:44.952Z,1.75
2022-09-20T08:53:49.858Z,1.75
2022-09-20T08:56:44.912Z,1.65
2022-09-20T08:59:44.941Z,0.95
2022-09-20T09:02:44.858Z,1.2
2022-09-20T09:05:44.942Z,0.65
2022-09-20T09:08:44.962Z,1.45
2022-09-20T09:11:46.943Z,1.6
2022-09-20T09:14:44.993Z,1.25
2022-09-20T09:17:44.894Z,2.7
2022-09-20T09:20:44.929Z,1.75
2022-09-20T09:23:44.924Z,1.6
2022-09-20T09:26:44.909Z,1.8
2022-09-20T09:29:44.972Z,1.5
2022-09-20T09:32:44.977Z,1.55
2022-09-20T09:35:44.908Z,1.35
2022-09-20T09:38:44.914Z,1.45
2022-09-20T09:41:44.954Z,1.6
2022-09-20T09:44:44.949Z,1.7
2022-09-20T09:47:44.913Z,1.2
2022-09-20T09:50:44.924Z,1.9
2022-09-20T09:53:44.934Z,1.4
2022-09-20T09:56:44.939Z,1.4
2022-09-20T09:59:45.080Z,1.6
2022-09-20T10:02:45.062Z,1.4
2022-09-20T10:05:45.007Z,2.1
2022-09-20T10:08:45.008Z,1.5
2022-09-20T10:11:44.928Z,1.7
2022-09-20T10:14:44.929Z,1.4
2022-09-20T10:17:45.219Z,1.7
2022-09-20T10:20:44.982Z,2.15
2022-09-20T10:24:02.977Z,1.4
2022-09-20T10:26:45.063Z,1.8
2022-09-20T10:29:44.973Z,1.8
2022-09-20T10:32:45.003Z,1.65
2022-09-20T10:35:44.970Z,2.2
2022-09-20T10:38:45.035Z,1.95
2022-09-20T10:41:44.952Z,1.55
2022-09-20T10:44:45.013Z,1.65
2022-09-20T10:47:45.055Z,1.95
2022-09-20T10:50:44.980Z,2.1
2022-09-20T10:53:45.030Z,1.3
2022-09-20T10:56:44.992Z,1.5
2022-09-20T10:59:45.107Z,1.4
2022-09-20T11:02:45.028Z,1
2022-09-20T11:05:44.994Z,0.8
2022-09-20T11:08:44.964Z,1.25
2022-09-20T11:11:44.983Z,1.5
2022-09-20T11:14:45.080Z,2
2022-09-20T11:17:45.042Z,2
2022-09-20T11:20:45.142Z,2.75
2022-09-20T11:23:45.416Z,1
2022-09-20T11:26:44.994Z,1.75
2022-09-20T11:29:44.990Z,0.9
2022-09-20T11:32:45.012Z,1.7
2022-09-20T11:35:45.028Z,1.8
2022-09-20T11:38:46.775Z,2.5
2022-09-20T11:41:45.034Z,1.7
2022-09-20T11:44:45.124Z,0.85
2022-09-20T11:47:54.737Z,1.5
2022-09-20T11:50:45.146Z,1.5
2022-09-20T11:53:45.128Z,1.7
2022-09-20T11:56:45.002Z,1.25
2022-09-20T11:59:45.062Z,1.85
2022-09-20T12:02:45.611Z,1.8
2022-09-20T12:05:45.113Z,1.45
2022-09-20T12:08:45.145Z,1.9
2022-09-20T12:11:45.073Z,2.35
2022-09-20T12:14:45.274Z,2.3
2022-09-20T12:17:45.066Z,1.85
2022-09-20T12:20:45.107Z,3.05
2022-09-20T12:23:45.074Z,1.5
2022-09-20T12:26:45.065Z,3.6
2022-09-20T12:29:45.117Z,1.95
2022-09-20T12:32:45.134Z,1.95
2022-09-20T12:35:45.165Z,2.55
2022-09-20T12:38:45.058Z,3.95
2022-09-20T12:41:45.084Z,2.35
2022-09-20T12:44:45.033Z,2
2022-09-20T12:47:45.200Z,2.4
2022-09-20T12:50:45.123Z,2.3
2022-09-20T12:53:45.090Z,2.45
2022-09-20T12:56:45.047Z,2.8
2022-09-20T12:59:45.079Z,1.95
2022-09-20T13:02:45.095Z,1.75
2022-09-20T13:05:45.103Z,2.2
2022-09-20T13:08:45.113Z,1.1
2022-09-20T13:11:45.088Z,1.05
2022-09-20T13:14:45.103Z,1.3
2022-09-20T13:17:45.103Z,1.1
2022-09-20T13:20:45.128Z,2.3
2022-09-20T13:23:45.171Z,1.9
2022-09-20T13:26:45.404Z,2
2022-09-20T13:29:45.088Z,2.15
2022-09-20T13:32:45.114Z,2.1
2022-09-20T13:35:45.140Z,2
2022-09-20T13:38:45.110Z,1.35
2022-09-20T13:41:45.141Z,1.95
2022-09-20T13:44:45.143Z,1.3
2022-09-20T13:47:45.158Z,1.4
2022-09-20T13:50:53.452Z,1.05
2022-09-20T13:53:45.109Z,1.2
2022-09-20T13:56:45.195Z,1.75
2022-09-20T13:59:45.119Z,2.45
2022-09-20T14:02:45.203Z,1.4
2022-09-20T14:05:45.178Z,1.2
2022-09-20T14:08:45.176Z,1.25
2022-09-20T14:11:45.186Z,1.65
2022-09-20T14:14:45.185Z,1.2
2022-09-20T14:17:45.274Z,1.7
2022-09-20T14:20:45.178Z,1
2022-09-20T14:23:45.188Z,2.25
2022-09-20T14:26:45.181Z,2.8
2022-09-20T14:29:45.515Z,1.75
2022-09-20T14:32:45.240Z,1.05
2022-09-20T14:35:45.173Z,1.45
2022-09-20T14:38:45.332Z,0.9
2022-09-20T14:41:45.148Z,0.7
2022-09-20T14:44:45.184Z,0.1
2022-09-20T14:47:45.180Z,0.3
2022-09-20T14:50:45.154Z,0.45
2022-09-20T14:53:45.193Z,0.45
2022-09-20T14:56:45.159Z,0.4
2022-09-20T14:59:45.165Z,0.6
2022-09-20T15:02:45.308Z,0.45
2022-09-20T15:05:45.208Z,0.5
2022-09-20T15:08:47.709Z,0.25
2022-09-20T15:11:45.185Z,0.25
2022-09-20T15:14:45.355Z,0.15
2022-09-20T15:17:45.239Z,0.3
2022-09-20T15:20:45.130Z,0.35
2022-09-20T15:23:45.181Z,0.5
2022-09-20T15:26:45.181Z,0.6
2022-09-20T15:29:45.191Z,0.4
2022-09-20T15:32:45.254Z,0.35
2022-09-20T15:35:45.238Z,0.4
2022-09-20T15:38:45.184Z,0.1
2022-09-20T15:41:45.224Z,0.8
2022-09-20T15:44:45.249Z,0.8
2022-09-20T15:47:45.349Z,0.35
2022-09-20T15:50:45.263Z,0.6
2022-09-20T15:53:45.294Z,0.6
2022-09-20T15:56:45.256Z,1.2
2022-09-20T15:59:45.249Z,1.15
2022-09-20T16:02:45.436Z,0.9
2022-09-20T16:05:45.239Z,0.85
2022-09-20T16:08:45.258Z,1.1
2022-09-20T16:11:45.293Z,0.35
2022-09-20T16:14:45.251Z,0.75
2022-09-20T16:17:45.215Z,0.5
2022-09-20T16:20:45.284Z,0.55
2022-09-20T16:23:45.238Z,0.55
2022-09-20T16:26:45.243Z,1.1
2022-09-20T16:29:45.303Z,0.85
2022-09-20T16:32:45.277Z,0.35
2022-09-20T16:35:45.269Z,0.5
2022-09-20T16:38:45.319Z,0.45
2022-09-20T16:41:45.305Z,0.35
2022-09-20T16:44:45.293Z,0.55
2022-09-20T16:47:45.303Z,0.45
2022-09-20T16:50:45.258Z,0.75
2022-09-20T16:53:45.388Z,0.9
2022-09-20T16:56:45.309Z,0.95
2022-09-20T16:59:47.806Z,1.15
2022-09-20T17:02:48.729Z,0.85
2022-09-20T17:05:45.341Z,0.45
2022-09-20T17:08:45.314Z,0.7
2022-09-20T17:11:45.289Z,0.55
2022-09-20T17:14:45.344Z,0.45
2022-09-20T17:17:45.315Z,0.3
2022-09-20T17:20:45.373Z,0.45
2022-09-20T17:23:51.140Z,0.25
2022-09-20T17:26:45.353Z,0.25
2022-09-20T17:29:45.290Z,0.25
2022-09-20T17:32:45.695Z,0.5
2022-09-20T17:35:45.415Z,0.3
2022-09-20T17:38:45.371Z,0.5
2022-09-20T17:41:45.358Z,0.4
2022-09-20T17:44:45.334Z,0.45
2022-09-20T17:47:45.334Z,0.5
2022-09-20T17:50:45.334Z,0.45
2022-09-20T17:53:45.326Z,0.3
2022-09-20T17:56:45.344Z,0.65
2022-09-20T17:59:45.274Z,1.05
2022-09-20T18:02:45.335Z,0.3
2022-09-20T18:05:45.350Z,0.35
2022-09-20T18:08:45.469Z,0.75
2022-09-20T18:11:45.371Z,0.8
2022-09-20T18:14:45.429Z,0.7
2022-09-20T18:17:45.355Z,0.05
2022-09-20T18:20:45.372Z,0.1
2022-09-20T18:23:45.358Z,0.25
2022-09-20T18:26:45.365Z,0.3
2022-09-20T18:29:45.341Z,2.1
2022-09-20T18:32:45.391Z,0.95
2022-09-20T18:35:45.373Z,0.9
2022-09-20T18:38:45.318Z,0.6
2022-09-20T18:41:45.374Z,0.6
2022-09-20T18:44:45.386Z,0.8
2022-09-20T18:47:45.336Z,0.25
2022-09-20T18:50:45.393Z,0.4
2022-09-20T18:53:45.395Z,0.1
2022-09-20T18:56:45.381Z,0.6
2022-09-20T18:59:54.528Z,0.85
2022-09-20T19:02:45.335Z,0.25
2022-09-20T19:05:45.370Z,0.65
2022-09-20T19:08:45.421Z,0.65
2022-09-20T19:11:45.419Z,0.55
2022-09-20T19:14:45.404Z,0.55
2022-09-20T19:17:45.454Z,0.7
2022-09-20T19:20:45.500Z,0.9
2022-09-20T19:23:45.431Z,0.85
2022-09-20T19:26:45.421Z,0.55
2022-09-20T19:29:45.455Z,0.45
2022-09-20T19:32:45.403Z,0.5
2022-09-20T19:35:50.303Z,0.45
2022-09-20T19:38:45.526Z,0.5
2022-09-20T19:41:45.410Z,0.4
2022-09-20T19:44:45.387Z,0.35
2022-09-20T19:47:45.490Z,0.15
2022-09-20T19:50:45.486Z,0.4
2022-09-20T19:53:45.459Z,0.35
2022-09-20T19:56:45.521Z,0.5
2022-09-20T19:59:45.435Z,0.55
2022-09-20T20:02:45.564Z,0.7
2022-09-20T20:05:45.467Z,0.55
2022-09-20T20:08:45.427Z,0.5
2022-09-20T20:11:45.408Z,0.4
2022-09-20T20:14:45.407Z,0.5
2022-09-20T20:17:45.402Z,0.4
2022-09-20T20:20:45.468Z,0.25
2022-09-20T20:23:45.434Z,0.15
2022-09-20T20:26:45.442Z,0
2022-09-20T20:29:45.470Z,0.15
2022-09-20T20:32:45.440Z,0.15
2022-09-20T20:35:45.466Z,0.05
2022-09-20T20:38:45.438Z,0.25
2022-09-20T20:41:45.482Z,0.2
2022-09-20T20:44:45.479Z,0.3
2022-09-20T20:47:45.464Z,0.2
2022-09-20T20:50:45.492Z,0.35
2022-09-20T20:53:45.462Z,0.4
2022-09-20T20:56:45.484Z,0.35
2022-09-20T20:59:45.537Z,0.25
2022-09-20T21:02:45.620Z,0.25
2022-09-20T21:05:45.470Z,0.35
2022-09-20T21:08:50.127Z,0.4
2022-09-20T21:11:45.676Z,0.3
2022-09-20T21:14:45.464Z,0.4
2022-09-20T21:17:45.478Z,0.3
2022-09-20T21:20:45.445Z,0.1
2022-09-20T21:23:45.546Z,0
2022-09-20T21:26:45.615Z,0.1
2022-09-20T21:29:45.485Z,0
2022-09-20T21:32:45.521Z,0
2022-09-20T21:35:45.527Z,0
2022-09-20T21:38:45.559Z,0.05
2022-09-20T21:41:48.065Z,0
2022-09-20T21:44:45.523Z,0
2022-09-20T21:47:45.556Z,0
2022-09-20T21:50:45.541Z,0
2022-09-20T21:53:45.497Z,0
2022-09-20T21:56:45.489Z,0
2022-09-20T21:59:45.534Z,0
2022-09-20T22:02:45.584Z,0
2022-09-20T22:05:45.481Z,0
2022-09-20T22:08:45.546Z,0
2022-09-20T22:11:45.647Z,0
2022-09-20T22:14:45.505Z,0
2022-09-20T22:17:45.514Z,0
2022-09-20T22:20:45.501Z,0
2022-09-20T22:23:45.531Z,0
2022-09-20T22:26:45.546Z,0
2022-09-20T22:29:45.494Z,0
2022-09-20T22:32:45.549Z,0
2022-09-20T22:35:45.520Z,0
2022-09-20T22:38:45.515Z,0
2022-09-20T22:41:45.600Z,0
2022-09-20T22:44:45.511Z,0
2022-09-20T22:47:45.552Z,0
2022-09-20T22:50:45.639Z,0
2022-09-20T22:53:45.539Z,0
2022-09-20T22:56:45.544Z,0.15
2022-09-20T22:59:45.570Z,0.1
2022-09-20T23:02:45.571Z,0
2022-09-20T23:05:45.647Z,0.25
2022-09-20T23:08:45.564Z,0.05
2022-09-20T23:11:45.622Z,0.25
2022-09-20T23:14:45.635Z,0.1
2022-09-20T23:17:45.565Z,0.25
2022-09-20T23:20:45.586Z,0
2022-09-20T23:23:45.561Z,0.1
2022-09-20T23:26:45.652Z,0
2022-09-20T23:29:45.594Z,0.1
2022-09-20T23:32:45.590Z,0.05
2022-09-20T23:35:45.555Z,0.05
2022-09-20T23:38:45.601Z,0.05
2022-09-20T23:41:51.335Z,0
2022-09-20T23:44:45.558Z,0
2022-09-20T23:47:45.605Z,0
2022-09-20T23:50:45.564Z,0
2022-09-20T23:53:45.585Z,0.2
2022-09-20T23:56:45.800Z,0.1
2022-09-20T23:59:45.622Z,0
